sensor_id;sensor_type;location;lat;lon;timestamp;P1;durP1;ratioP1;P2;durP2;ratioP2
59147;SDS011;44930;52.878;6.168;2023-05-07T00:00:23;19.83;;;14.48;;
59147;SDS011;44930;52.878;6.168;2023-05-07T00:02:49;16.52;;;13.95;;
59147;SDS011;44930;52.878;6.168;2023-05-07T00:05:16;20.38;;;14.60;;
59147;SDS011;44930;52.878;6.168;2023-05-07T00:07:42;17.20;;;14.20;;
59147;SDS011;44930;52.878;6.168;2023-05-07T00:10:08;19.30;;;14.13;;
59147;SDS011;44930;52.878;6.168;2023-05-07T00:12:35;18.58;;;14.32;;
59147;SDS011;44930;52.878;6.168;2023-05-07T00:15:04;19.98;;;14.32;;
59147;SDS011;44930;52.878;6.168;2023-05-07T00:17:30;18.45;;;15.43;;
59147;SDS011;44930;52.878;6.168;2023-05-07T00:19:57;18.05;;;14.13;;
59147;SDS011;44930;52.878;6.168;2023-05-07T00:22:23;18.70;;;14.35;;
59147;SDS011;44930;52.878;6.168;2023-05-07T00:24:48;18.73;;;14.65;;
59147;SDS011;44930;52.878;6.168;2023-05-07T00:27:14;22.00;;;15.48;;
59147;SDS011;44930;52.878;6.168;2023-05-07T00:29:41;21.30;;;16.45;;
59147;SDS011;44930;52.878;6.168;2023-05-07T00:32:06;18.42;;;14.98;;
59147;SDS011;44930;52.878;6.168;2023-05-07T00:34:32;19.83;;;15.57;;
59147;SDS011;44930;52.878;6.168;2023-05-07T00:36:59;20.63;;;15.40;;
59147;SDS011;44930;52.878;6.168;2023-05-07T00:39:26;18.40;;;15.30;;
59147;SDS011;44930;52.878;6.168;2023-05-07T00:41:51;20.50;;;15.82;;
59147;SDS011;44930;52.878;6.168;2023-05-07T00:44:17;21.40;;;16.08;;
59147;SDS011;44930;52.878;6.168;2023-05-07T00:46:43;18.77;;;15.15;;
59147;SDS011;44930;52.878;6.168;2023-05-07T00:49:10;20.70;;;16.85;;
59147;SDS011;44930;52.878;6.168;2023-05-07T00:51:35;19.98;;;15.45;;
59147;SDS011;44930;52.878;6.168;2023-05-07T00:54:02;25.50;;;16.05;;
59147;SDS011;44930;52.878;6.168;2023-05-07T00:56:28;19.70;;;15.73;;
59147;SDS011;44930;52.878;6.168;2023-05-07T00:58:54;19.98;;;15.73;;
59147;SDS011;44930;52.878;6.168;2023-05-07T01:01:20;21.20;;;15.73;;
59147;SDS011;44930;52.878;6.168;2023-05-07T01:03:46;17.33;;;14.77;;
59147;SDS011;44930;52.878;6.168;2023-05-07T01:06:11;19.30;;;15.63;;
59147;SDS011;44930;52.878;6.168;2023-05-07T01:08:41;19.63;;;15.70;;
59147;SDS011;44930;52.878;6.168;2023-05-07T01:11:07;18.52;;;16.10;;
59147;SDS011;44930;52.878;6.168;2023-05-07T01:13:34;19.17;;;15.00;;
59147;SDS011;44930;52.878;6.168;2023-05-07T01:16:01;19.00;;;15.35;;
59147;SDS011;44930;52.878;6.168;2023-05-07T01:18:27;20.63;;;15.45;;
59147;SDS011;44930;52.878;6.168;2023-05-07T01:20:55;16.83;;;14.15;;
59147;SDS011;44930;52.878;6.168;2023-05-07T01:23:23;19.75;;;14.00;;
59147;SDS011;44930;52.878;6.168;2023-05-07T01:25:53;15.90;;;12.52;;
59147;SDS011;44930;52.878;6.168;2023-05-07T01:28:19;15.93;;;13.02;;
59147;SDS011;44930;52.878;6.168;2023-05-07T01:30:46;16.50;;;12.52;;
59147;SDS011;44930;52.878;6.168;2023-05-07T01:33:15;16.67;;;12.82;;
59147;SDS011;44930;52.878;6.168;2023-05-07T01:35:47;16.80;;;12.57;;
59147;SDS011;44930;52.878;6.168;2023-05-07T01:38:15;15.95;;;12.27;;
59147;SDS011;44930;52.878;6.168;2023-05-07T01:40:41;17.42;;;12.63;;
59147;SDS011;44930;52.878;6.168;2023-05-07T01:43:07;13.80;;;11.38;;
59147;SDS011;44930;52.878;6.168;2023-05-07T01:45:34;14.93;;;11.23;;
59147;SDS011;44930;52.878;6.168;2023-05-07T01:48:00;15.65;;;11.98;;
59147;SDS011;44930;52.878;6.168;2023-05-07T01:50:27;13.95;;;11.50;;
59147;SDS011;44930;52.878;6.168;2023-05-07T01:52:52;18.08;;;11.70;;
59147;SDS011;44930;52.878;6.168;2023-05-07T01:55:18;15.52;;;12.00;;
59147;SDS011;44930;52.878;6.168;2023-05-07T01:57:44;15.00;;;12.13;;
59147;SDS011;44930;52.878;6.168;2023-05-07T02:00:10;15.68;;;12.35;;
59147;SDS011;44930;52.878;6.168;2023-05-07T02:02:35;19.02;;;13.02;;
59147;SDS011;44930;52.878;6.168;2023-05-07T02:05:03;17.25;;;13.10;;
59147;SDS011;44930;52.878;6.168;2023-05-07T02:07:29;20.15;;;12.88;;
59147;SDS011;44930;52.878;6.168;2023-05-07T02:09:55;17.27;;;13.07;;
59147;SDS011;44930;52.878;6.168;2023-05-07T02:12:21;18.70;;;13.60;;
59147;SDS011;44930;52.878;6.168;2023-05-07T02:14:47;18.42;;;14.43;;
59147;SDS011;44930;52.878;6.168;2023-05-07T02:17:12;19.25;;;14.38;;
59147;SDS011;44930;52.878;6.168;2023-05-07T02:19:38;21.10;;;14.63;;
59147;SDS011;44930;52.878;6.168;2023-05-07T02:22:03;21.75;;;15.63;;
59147;SDS011;44930;52.878;6.168;2023-05-07T02:24:29;19.77;;;15.60;;
59147;SDS011;44930;52.878;6.168;2023-05-07T02:26:55;17.63;;;14.45;;
59147;SDS011;44930;52.878;6.168;2023-05-07T02:29:20;19.27;;;14.88;;
59147;SDS011;44930;52.878;6.168;2023-05-07T02:31:46;23.63;;;16.38;;
59147;SDS011;44930;52.878;6.168;2023-05-07T02:34:15;22.95;;;15.93;;
59147;SDS011;44930;52.878;6.168;2023-05-07T02:36:41;21.27;;;16.73;;
59147;SDS011;44930;52.878;6.168;2023-05-07T02:39:07;19.60;;;16.55;;
59147;SDS011;44930;52.878;6.168;2023-05-07T02:41:32;20.10;;;17.02;;
59147;SDS011;44930;52.878;6.168;2023-05-07T02:43:58;21.23;;;17.17;;
59147;SDS011;44930;52.878;6.168;2023-05-07T02:46:23;21.50;;;17.38;;
59147;SDS011;44930;52.878;6.168;2023-05-07T02:48:49;23.83;;;18.80;;
59147;SDS011;44930;52.878;6.168;2023-05-07T02:51:16;22.92;;;17.63;;
59147;SDS011;44930;52.878;6.168;2023-05-07T02:53:45;20.23;;;17.02;;
59147;SDS011;44930;52.878;6.168;2023-05-07T02:56:11;22.15;;;17.35;;
59147;SDS011;44930;52.878;6.168;2023-05-07T02:58:36;22.90;;;18.63;;
59147;SDS011;44930;52.878;6.168;2023-05-07T03:01:04;21.48;;;17.48;;
59147;SDS011;44930;52.878;6.168;2023-05-07T03:03:30;24.58;;;18.85;;
59147;SDS011;44930;52.878;6.168;2023-05-07T03:05:56;21.50;;;17.60;;
59147;SDS011;44930;52.878;6.168;2023-05-07T03:08:21;22.55;;;17.60;;
59147;SDS011;44930;52.878;6.168;2023-05-07T03:10:47;23.55;;;17.23;;
59147;SDS011;44930;52.878;6.168;2023-05-07T03:13:13;22.13;;;18.10;;
59147;SDS011;44930;52.878;6.168;2023-05-07T03:15:38;23.23;;;18.40;;
59147;SDS011;44930;52.878;6.168;2023-05-07T03:18:04;23.08;;;18.40;;
59147;SDS011;44930;52.878;6.168;2023-05-07T03:20:30;23.73;;;18.30;;
59147;SDS011;44930;52.878;6.168;2023-05-07T03:22:55;24.52;;;18.83;;
59147;SDS011;44930;52.878;6.168;2023-05-07T03:25:21;23.33;;;18.63;;
59147;SDS011;44930;52.878;6.168;2023-05-07T03:27:47;26.70;;;19.83;;
59147;SDS011;44930;52.878;6.168;2023-05-07T03:30:12;29.40;;;19.85;;
59147;SDS011;44930;52.878;6.168;2023-05-07T03:32:38;22.75;;;19.08;;
59147;SDS011;44930;52.878;6.168;2023-05-07T03:35:03;25.52;;;20.40;;
59147;SDS011;44930;52.878;6.168;2023-05-07T03:37:29;26.05;;;20.58;;
59147;SDS011;44930;52.878;6.168;2023-05-07T03:39:55;27.30;;;20.75;;
59147;SDS011;44930;52.878;6.168;2023-05-07T03:42:21;25.65;;;20.77;;
59147;SDS011;44930;52.878;6.168;2023-05-07T03:44:46;27.15;;;21.67;;
59147;SDS011;44930;52.878;6.168;2023-05-07T03:47:12;26.67;;;20.10;;
59147;SDS011;44930;52.878;6.168;2023-05-07T03:49:38;26.33;;;20.52;;
59147;SDS011;44930;52.878;6.168;2023-05-07T03:52:04;26.95;;;21.00;;
59147;SDS011;44930;52.878;6.168;2023-05-07T03:54:30;27.48;;;21.58;;
59147;SDS011;44930;52.878;6.168;2023-05-07T03:56:56;31.35;;;21.35;;
59147;SDS011;44930;52.878;6.168;2023-05-07T03:59:21;27.02;;;20.85;;
59147;SDS011;44930;52.878;6.168;2023-05-07T04:01:47;28.65;;;21.10;;
59147;SDS011;44930;52.878;6.168;2023-05-07T04:04:14;27.85;;;21.77;;
59147;SDS011;44930;52.878;6.168;2023-05-07T04:06:40;29.42;;;22.42;;
59147;SDS011;44930;52.878;6.168;2023-05-07T04:09:06;32.15;;;23.08;;
59147;SDS011;44930;52.878;6.168;2023-05-07T04:11:31;30.15;;;22.27;;
59147;SDS011;44930;52.878;6.168;2023-05-07T04:13:57;26.67;;;21.92;;
59147;SDS011;44930;52.878;6.168;2023-05-07T04:16:22;32.17;;;24.23;;
59147;SDS011;44930;52.878;6.168;2023-05-07T04:18:48;29.98;;;23.15;;
59147;SDS011;44930;52.878;6.168;2023-05-07T04:21:14;31.73;;;23.55;;
59147;SDS011;44930;52.878;6.168;2023-05-07T04:23:44;30.75;;;22.80;;
59147;SDS011;44930;52.878;6.168;2023-05-07T04:26:10;31.17;;;23.90;;
59147;SDS011;44930;52.878;6.168;2023-05-07T04:28:36;31.83;;;24.90;;
59147;SDS011;44930;52.878;6.168;2023-05-07T04:31:01;30.67;;;24.55;;
59147;SDS011;44930;52.878;6.168;2023-05-07T04:33:27;32.30;;;24.50;;
59147;SDS011;44930;52.878;6.168;2023-05-07T04:35:52;32.17;;;25.02;;
59147;SDS011;44930;52.878;6.168;2023-05-07T04:38:18;35.00;;;25.35;;
59147;SDS011;44930;52.878;6.168;2023-05-07T04:40:44;34.05;;;24.52;;
59147;SDS011;44930;52.878;6.168;2023-05-07T04:43:09;31.95;;;24.55;;
59147;SDS011;44930;52.878;6.168;2023-05-07T04:45:35;35.30;;;26.45;;
59147;SDS011;44930;52.878;6.168;2023-05-07T04:48:01;36.42;;;26.13;;
59147;SDS011;44930;52.878;6.168;2023-05-07T04:50:27;35.22;;;25.95;;
59147;SDS011;44930;52.878;6.168;2023-05-07T04:52:53;38.60;;;26.45;;
59147;SDS011;44930;52.878;6.168;2023-05-07T04:55:18;37.53;;;26.65;;
59147;SDS011;44930;52.878;6.168;2023-05-07T04:57:44;32.25;;;25.52;;
59147;SDS011;44930;52.878;6.168;2023-05-07T05:00:10;30.90;;;25.08;;
59147;SDS011;44930;52.878;6.168;2023-05-07T05:02:39;35.40;;;25.95;;
59147;SDS011;44930;52.878;6.168;2023-05-07T05:05:06;36.38;;;24.85;;
59147;SDS011;44930;52.878;6.168;2023-05-07T05:07:32;37.72;;;27.25;;
59147;SDS011;44930;52.878;6.168;2023-05-07T05:09:57;33.05;;;26.15;;
59147;SDS011;44930;52.878;6.168;2023-05-07T05:12:23;35.72;;;26.60;;
59147;SDS011;44930;52.878;6.168;2023-05-07T05:14:49;36.08;;;27.08;;
59147;SDS011;44930;52.878;6.168;2023-05-07T05:17:15;34.47;;;26.88;;
59147;SDS011;44930;52.878;6.168;2023-05-07T05:19:40;35.45;;;27.83;;
59147;SDS011;44930;52.878;6.168;2023-05-07T05:22:06;38.63;;;27.33;;
59147;SDS011;44930;52.878;6.168;2023-05-07T05:24:31;35.30;;;26.70;;
59147;SDS011;44930;52.878;6.168;2023-05-07T05:26:57;35.90;;;27.65;;
59147;SDS011;44930;52.878;6.168;2023-05-07T05:29:26;35.40;;;27.13;;
59147;SDS011;44930;52.878;6.168;2023-05-07T05:31:51;34.60;;;26.38;;
59147;SDS011;44930;52.878;6.168;2023-05-07T05:34:17;34.15;;;26.50;;
59147;SDS011;44930;52.878;6.168;2023-05-07T05:36:44;34.70;;;27.15;;
59147;SDS011;44930;52.878;6.168;2023-05-07T05:39:10;38.13;;;27.35;;
59147;SDS011;44930;52.878;6.168;2023-05-07T05:41:36;37.45;;;26.40;;
59147;SDS011;44930;52.878;6.168;2023-05-07T05:44:01;34.63;;;25.88;;
59147;SDS011;44930;52.878;6.168;2023-05-07T05:46:27;34.50;;;26.60;;
59147;SDS011;44930;52.878;6.168;2023-05-07T05:48:52;35.65;;;25.95;;
59147;SDS011;44930;52.878;6.168;2023-05-07T05:51:18;34.00;;;26.08;;
59147;SDS011;44930;52.878;6.168;2023-05-07T05:53:43;32.83;;;25.38;;
59147;SDS011;44930;52.878;6.168;2023-05-07T05:56:09;34.28;;;25.58;;
59147;SDS011;44930;52.878;6.168;2023-05-07T05:58:35;34.83;;;26.20;;
59147;SDS011;44930;52.878;6.168;2023-05-07T06:01:00;33.38;;;24.77;;
59147;SDS011;44930;52.878;6.168;2023-05-07T06:03:27;37.20;;;25.48;;
59147;SDS011;44930;52.878;6.168;2023-05-07T06:05:53;34.75;;;25.05;;
59147;SDS011;44930;52.878;6.168;2023-05-07T06:08:18;34.72;;;25.08;;
59147;SDS011;44930;52.878;6.168;2023-05-07T06:10:44;32.33;;;25.00;;
59147;SDS011;44930;52.878;6.168;2023-05-07T06:13:10;32.70;;;25.90;;
59147;SDS011;44930;52.878;6.168;2023-05-07T06:15:36;30.40;;;25.35;;
59147;SDS011;44930;52.878;6.168;2023-05-07T06:18:01;35.38;;;27.25;;
59147;SDS011;44930;52.878;6.168;2023-05-07T06:20:27;32.10;;;24.25;;
59147;SDS011;44930;52.878;6.168;2023-05-07T06:22:53;34.45;;;24.35;;
59147;SDS011;44930;52.878;6.168;2023-05-07T06:25:18;30.38;;;23.95;;
59147;SDS011;44930;52.878;6.168;2023-05-07T06:27:44;29.80;;;24.17;;
59147;SDS011;44930;52.878;6.168;2023-05-07T06:30:10;30.13;;;24.10;;
59147;SDS011;44930;52.878;6.168;2023-05-07T06:32:36;32.40;;;25.15;;
59147;SDS011;44930;52.878;6.168;2023-05-07T06:35:02;29.83;;;24.63;;
59147;SDS011;44930;52.878;6.168;2023-05-07T06:37:27;29.52;;;24.05;;
59147;SDS011;44930;52.878;6.168;2023-05-07T06:39:53;29.88;;;23.45;;
59147;SDS011;44930;52.878;6.168;2023-05-07T06:42:18;29.42;;;23.52;;
59147;SDS011;44930;52.878;6.168;2023-05-07T06:44:44;29.05;;;23.58;;
59147;SDS011;44930;52.878;6.168;2023-05-07T06:47:10;29.17;;;22.65;;
59147;SDS011;44930;52.878;6.168;2023-05-07T06:49:35;29.00;;;23.35;;
59147;SDS011;44930;52.878;6.168;2023-05-07T06:52:01;29.65;;;24.88;;
59147;SDS011;44930;52.878;6.168;2023-05-07T06:54:26;28.17;;;22.67;;
59147;SDS011;44930;52.878;6.168;2023-05-07T06:56:53;30.30;;;23.35;;
59147;SDS011;44930;52.878;6.168;2023-05-07T06:59:19;28.67;;;22.75;;
59147;SDS011;44930;52.878;6.168;2023-05-07T07:01:45;28.13;;;22.05;;
59147;SDS011;44930;52.878;6.168;2023-05-07T07:04:10;30.20;;;23.48;;
59147;SDS011;44930;52.878;6.168;2023-05-07T07:06:36;28.42;;;21.98;;
59147;SDS011;44930;52.878;6.168;2023-05-07T07:09:01;26.95;;;22.65;;
59147;SDS011;44930;52.878;6.168;2023-05-07T07:11:27;28.10;;;22.70;;
59147;SDS011;44930;52.878;6.168;2023-05-07T07:13:52;33.22;;;23.83;;
59147;SDS011;44930;52.878;6.168;2023-05-07T07:16:19;30.10;;;23.63;;
59147;SDS011;44930;52.878;6.168;2023-05-07T07:18:46;27.17;;;23.02;;
59147;SDS011;44930;52.878;6.168;2023-05-07T07:21:11;29.45;;;22.20;;
59147;SDS011;44930;52.878;6.168;2023-05-07T07:23:37;27.80;;;23.52;;
59147;SDS011;44930;52.878;6.168;2023-05-07T07:26:02;28.35;;;22.42;;
59147;SDS011;44930;52.878;6.168;2023-05-07T07:28:28;29.48;;;22.52;;
59147;SDS011;44930;52.878;6.168;2023-05-07T07:30:53;27.50;;;23.45;;
59147;SDS011;44930;52.878;6.168;2023-05-07T07:33:20;29.75;;;23.77;;
59147;SDS011;44930;52.878;6.168;2023-05-07T07:35:45;25.92;;;22.48;;
59147;SDS011;44930;52.878;6.168;2023-05-07T07:38:11;27.05;;;23.15;;
59147;SDS011;44930;52.878;6.168;2023-05-07T07:40:36;28.13;;;23.73;;
59147;SDS011;44930;52.878;6.168;2023-05-07T07:43:02;30.88;;;23.83;;
59147;SDS011;44930;52.878;6.168;2023-05-07T07:45:27;27.45;;;22.33;;
59147;SDS011;44930;52.878;6.168;2023-05-07T07:47:54;28.13;;;23.35;;
59147;SDS011;44930;52.878;6.168;2023-05-07T07:50:19;29.75;;;24.27;;
59147;SDS011;44930;52.878;6.168;2023-05-07T07:52:45;31.50;;;23.15;;
59147;SDS011;44930;52.878;6.168;2023-05-07T07:55:10;28.42;;;24.30;;
59147;SDS011;44930;52.878;6.168;2023-05-07T07:57:37;29.42;;;24.42;;
59147;SDS011;44930;52.878;6.168;2023-05-07T08:00:02;28.17;;;22.70;;
59147;SDS011;44930;52.878;6.168;2023-05-07T08:02:28;29.50;;;24.75;;
59147;SDS011;44930;52.878;6.168;2023-05-07T08:04:54;29.70;;;24.65;;
59147;SDS011;44930;52.878;6.168;2023-05-07T08:07:20;30.65;;;22.88;;
59147;SDS011;44930;52.878;6.168;2023-05-07T08:09:47;30.50;;;24.48;;
59147;SDS011;44930;52.878;6.168;2023-05-07T08:12:13;29.45;;;24.33;;
59147;SDS011;44930;52.878;6.168;2023-05-07T08:14:39;28.25;;;23.77;;
59147;SDS011;44930;52.878;6.168;2023-05-07T08:17:05;27.10;;;22.83;;
59147;SDS011;44930;52.878;6.168;2023-05-07T08:19:31;28.55;;;23.27;;
59147;SDS011;44930;52.878;6.168;2023-05-07T08:21:57;32.63;;;25.42;;
59147;SDS011;44930;52.878;6.168;2023-05-07T08:24:23;31.40;;;24.23;;
59147;SDS011;44930;52.878;6.168;2023-05-07T08:26:48;31.08;;;23.75;;
59147;SDS011;44930;52.878;6.168;2023-05-07T08:29:14;32.00;;;24.38;;
59147;SDS011;44930;52.878;6.168;2023-05-07T08:31:40;32.72;;;23.80;;
59147;SDS011;44930;52.878;6.168;2023-05-07T08:34:06;30.65;;;24.42;;
59147;SDS011;44930;52.878;6.168;2023-05-07T08:36:31;31.77;;;24.75;;
59147;SDS011;44930;52.878;6.168;2023-05-07T08:38:57;31.63;;;23.80;;
59147;SDS011;44930;52.878;6.168;2023-05-07T08:41:24;30.48;;;23.75;;
59147;SDS011;44930;52.878;6.168;2023-05-07T08:43:50;33.42;;;24.88;;
59147;SDS011;44930;52.878;6.168;2023-05-07T08:46:17;31.00;;;23.75;;
59147;SDS011;44930;52.878;6.168;2023-05-07T08:48:44;30.38;;;23.63;;
59147;SDS011;44930;52.878;6.168;2023-05-07T08:51:13;32.00;;;25.30;;
59147;SDS011;44930;52.878;6.168;2023-05-07T08:53:41;32.58;;;25.45;;
59147;SDS011;44930;52.878;6.168;2023-05-07T08:56:08;29.75;;;24.85;;
59147;SDS011;44930;52.878;6.168;2023-05-07T08:58:34;31.45;;;24.08;;
59147;SDS011;44930;52.878;6.168;2023-05-07T09:01:01;29.17;;;23.63;;
59147;SDS011;44930;52.878;6.168;2023-05-07T09:03:39;29.95;;;23.38;;
59147;SDS011;44930;52.878;6.168;2023-05-07T09:06:05;27.70;;;23.88;;
59147;SDS011;44930;52.878;6.168;2023-05-07T09:08:32;28.40;;;24.50;;
59147;SDS011;44930;52.878;6.168;2023-05-07T09:10:59;30.92;;;24.73;;
59147;SDS011;44930;52.878;6.168;2023-05-07T09:13:24;29.73;;;24.20;;
59147;SDS011;44930;52.878;6.168;2023-05-07T09:15:51;29.52;;;24.42;;
59147;SDS011;44930;52.878;6.168;2023-05-07T09:18:17;33.83;;;25.52;;
59147;SDS011;44930;52.878;6.168;2023-05-07T09:20:43;33.50;;;25.98;;
59147;SDS011;44930;52.878;6.168;2023-05-07T09:23:08;33.03;;;25.85;;
59147;SDS011;44930;52.878;6.168;2023-05-07T09:25:35;34.28;;;25.48;;
59147;SDS011;44930;52.878;6.168;2023-05-07T09:28:02;29.80;;;24.77;;
59147;SDS011;44930;52.878;6.168;2023-05-07T09:30:29;35.33;;;25.92;;
59147;SDS011;44930;52.878;6.168;2023-05-07T09:32:55;31.90;;;25.35;;
59147;SDS011;44930;52.878;6.168;2023-05-07T09:35:22;36.70;;;27.65;;
59147;SDS011;44930;52.878;6.168;2023-05-07T09:37:51;34.58;;;26.67;;
59147;SDS011;44930;52.878;6.168;2023-05-07T09:40:27;32.38;;;26.73;;
59147;SDS011;44930;52.878;6.168;2023-05-07T09:42:55;32.65;;;25.83;;
59147;SDS011;44930;52.878;6.168;2023-05-07T09:45:29;32.55;;;25.52;;
59147;SDS011;44930;52.878;6.168;2023-05-07T09:47:56;34.40;;;27.50;;
59147;SDS011;44930;52.878;6.168;2023-05-07T09:50:26;30.02;;;23.38;;
59147;SDS011;44930;52.878;6.168;2023-05-07T09:52:56;33.60;;;25.73;;
59147;SDS011;44930;52.878;6.168;2023-05-07T09:55:22;33.67;;;24.83;;
59147;SDS011;44930;52.878;6.168;2023-05-07T09:57:51;29.88;;;25.48;;
59147;SDS011;44930;52.878;6.168;2023-05-07T10:00:21;31.15;;;24.67;;
59147;SDS011;44930;52.878;6.168;2023-05-07T10:02:50;31.58;;;26.00;;
59147;SDS011;44930;52.878;6.168;2023-05-07T10:05:21;29.92;;;24.63;;
59147;SDS011;44930;52.878;6.168;2023-05-07T10:07:47;28.80;;;23.35;;
59147;SDS011;44930;52.878;6.168;2023-05-07T10:10:14;30.35;;;25.85;;
59147;SDS011;44930;52.878;6.168;2023-05-07T10:12:40;29.45;;;24.83;;
59147;SDS011;44930;52.878;6.168;2023-05-07T10:15:09;28.73;;;23.92;;
59147;SDS011;44930;52.878;6.168;2023-05-07T10:17:37;27.65;;;23.80;;
59147;SDS011;44930;52.878;6.168;2023-05-07T10:20:04;28.25;;;22.40;;
59147;SDS011;44930;52.878;6.168;2023-05-07T10:22:37;29.38;;;25.13;;
59147;SDS011;44930;52.878;6.168;2023-05-07T10:25:06;29.83;;;24.25;;
59147;SDS011;44930;52.878;6.168;2023-05-07T10:27:43;29.90;;;23.48;;
59147;SDS011;44930;52.878;6.168;2023-05-07T10:30:56;30.75;;;25.67;;
59147;SDS011;44930;52.878;6.168;2023-05-07T10:33:04;33.17;;;24.60;;
59147;SDS011;44930;52.878;6.168;2023-05-07T10:35:43;31.40;;;24.08;;
59147;SDS011;44930;52.878;6.168;2023-05-07T10:38:11;28.83;;;24.85;;
59147;SDS011;44930;52.878;6.168;2023-05-07T10:40:37;25.65;;;21.85;;
59147;SDS011;44930;52.878;6.168;2023-05-07T10:43:04;29.27;;;24.25;;
59147;SDS011;44930;52.878;6.168;2023-05-07T10:45:30;28.15;;;23.52;;
59147;SDS011;44930;52.878;6.168;2023-05-07T10:48:09;29.70;;;23.00;;
59147;SDS011;44930;52.878;6.168;2023-05-07T10:50:36;31.20;;;24.33;;
59147;SDS011;44930;52.878;6.168;2023-05-07T10:53:20;27.70;;;24.23;;
59147;SDS011;44930;52.878;6.168;2023-05-07T10:55:46;28.25;;;23.58;;
59147;SDS011;44930;52.878;6.168;2023-05-07T11:00:58;30.90;;;23.83;;
59147;SDS011;44930;52.878;6.168;2023-05-07T11:03:25;28.15;;;24.73;;
59147;SDS011;44930;52.878;6.168;2023-05-07T11:09:09;27.45;;;22.83;;
59147;SDS011;44930;52.878;6.168;2023-05-07T11:11:47;27.88;;;23.42;;
59147;SDS011;44930;52.878;6.168;2023-05-07T11:17:07;25.23;;;22.13;;
59147;SDS011;44930;52.878;6.168;2023-05-07T11:19:47;31.33;;;23.02;;
59147;SDS011;44930;52.878;6.168;2023-05-07T11:25:05;27.77;;;23.38;;
59147;SDS011;44930;52.878;6.168;2023-05-07T11:27:32;24.42;;;21.75;;
59147;SDS011;44930;52.878;6.168;2023-05-07T11:29:58;27.02;;;21.98;;
59147;SDS011;44930;52.878;6.168;2023-05-07T11:34:57;26.25;;;22.08;;
59147;SDS011;44930;52.878;6.168;2023-05-07T11:37:24;29.38;;;21.60;;
59147;SDS011;44930;52.878;6.168;2023-05-07T11:39:51;24.17;;;21.45;;
59147;SDS011;44930;52.878;6.168;2023-05-07T11:42:32;24.98;;;20.65;;
59147;SDS011;44930;52.878;6.168;2023-05-07T11:45:00;23.65;;;20.95;;
59147;SDS011;44930;52.878;6.168;2023-05-07T11:47:26;23.05;;;20.63;;
59147;SDS011;44930;52.878;6.168;2023-05-07T11:49:55;24.77;;;21.83;;
59147;SDS011;44930;52.878;6.168;2023-05-07T11:52:21;23.88;;;21.15;;
59147;SDS011;44930;52.878;6.168;2023-05-07T11:54:52;24.13;;;19.38;;
59147;SDS011;44930;52.878;6.168;2023-05-07T11:57:18;24.33;;;20.83;;
59147;SDS011;44930;52.878;6.168;2023-05-07T11:59:44;23.25;;;20.70;;
59147;SDS011;44930;52.878;6.168;2023-05-07T12:02:13;27.25;;;23.02;;
59147;SDS011;44930;52.878;6.168;2023-05-07T12:04:40;27.98;;;22.35;;
59147;SDS011;44930;52.878;6.168;2023-05-07T12:07:10;26.85;;;20.60;;
59147;SDS011;44930;52.878;6.168;2023-05-07T12:09:40;23.70;;;20.17;;
59147;SDS011;44930;52.878;6.168;2023-05-07T12:12:06;22.67;;;19.88;;
59147;SDS011;44930;52.878;6.168;2023-05-07T12:14:32;21.90;;;18.73;;
59147;SDS011;44930;52.878;6.168;2023-05-07T12:16:58;23.92;;;20.85;;
59147;SDS011;44930;52.878;6.168;2023-05-07T12:19:28;20.08;;;18.05;;
59147;SDS011;44930;52.878;6.168;2023-05-07T12:21:54;21.65;;;18.83;;
59147;SDS011;44930;52.878;6.168;2023-05-07T12:24:21;21.10;;;18.77;;
59147;SDS011;44930;52.878;6.168;2023-05-07T12:26:47;21.58;;;19.23;;
59147;SDS011;44930;52.878;6.168;2023-05-07T12:29:13;22.08;;;19.67;;
59147;SDS011;44930;52.878;6.168;2023-05-07T12:31:42;21.95;;;18.08;;
59147;SDS011;44930;52.878;6.168;2023-05-07T12:34:08;23.55;;;19.38;;
59147;SDS011;44930;52.878;6.168;2023-05-07T12:36:39;19.52;;;17.52;;
59147;SDS011;44930;52.878;6.168;2023-05-07T12:39:08;23.88;;;17.85;;
59147;SDS011;44930;52.878;6.168;2023-05-07T12:44:21;23.00;;;17.67;;
59147;SDS011;44930;52.878;6.168;2023-05-07T12:46:48;20.63;;;18.42;;
59147;SDS011;44930;52.878;6.168;2023-05-07T12:49:14;21.05;;;18.17;;
59147;SDS011;44930;52.878;6.168;2023-05-07T12:51:40;20.02;;;18.02;;
59147;SDS011;44930;52.878;6.168;2023-05-07T12:54:05;23.35;;;18.45;;
59147;SDS011;44930;52.878;6.168;2023-05-07T12:56:31;20.30;;;17.90;;
59147;SDS011;44930;52.878;6.168;2023-05-07T12:58:57;18.48;;;16.58;;
59147;SDS011;44930;52.878;6.168;2023-05-07T13:01:28;17.60;;;15.77;;
59147;SDS011;44930;52.878;6.168;2023-05-07T13:03:55;19.13;;;17.08;;
59147;SDS011;44930;52.878;6.168;2023-05-07T13:06:20;19.10;;;16.95;;
59147;SDS011;44930;52.878;6.168;2023-05-07T13:08:46;21.52;;;16.17;;
59147;SDS011;44930;52.878;6.168;2023-05-07T13:11:12;17.95;;;15.23;;
59147;SDS011;44930;52.878;6.168;2023-05-07T13:13:38;18.08;;;15.45;;
59147;SDS011;44930;52.878;6.168;2023-05-07T13:16:05;17.00;;;13.52;;
59147;SDS011;44930;52.878;6.168;2023-05-07T13:18:32;17.10;;;14.77;;
59147;SDS011;44930;52.878;6.168;2023-05-07T13:20:59;15.82;;;13.85;;
59147;SDS011;44930;52.878;6.168;2023-05-07T13:23:25;13.23;;;11.85;;
59147;SDS011;44930;52.878;6.168;2023-05-07T13:25:51;14.88;;;13.27;;
59147;SDS011;44930;52.878;6.168;2023-05-07T13:28:20;16.83;;;13.30;;
59147;SDS011;44930;52.878;6.168;2023-05-07T13:30:47;17.35;;;15.38;;
59147;SDS011;44930;52.878;6.168;2023-05-07T13:33:13;17.70;;;15.10;;
59147;SDS011;44930;52.878;6.168;2023-05-07T13:35:38;16.08;;;14.32;;
59147;SDS011;44930;52.878;6.168;2023-05-07T13:38:04;16.63;;;14.85;;
59147;SDS011;44930;52.878;6.168;2023-05-07T13:40:30;16.58;;;14.40;;
59147;SDS011;44930;52.878;6.168;2023-05-07T13:42:59;20.40;;;14.45;;
59147;SDS011;44930;52.878;6.168;2023-05-07T13:45:26;17.70;;;15.02;;
59147;SDS011;44930;52.878;6.168;2023-05-07T13:47:54;14.80;;;13.25;;
59147;SDS011;44930;52.878;6.168;2023-05-07T13:50:20;18.55;;;14.57;;
59147;SDS011;44930;52.878;6.168;2023-05-07T13:52:45;16.98;;;14.30;;
59147;SDS011;44930;52.878;6.168;2023-05-07T13:55:16;16.45;;;12.88;;
59147;SDS011;44930;52.878;6.168;2023-05-07T13:57:44;15.15;;;13.10;;
59147;SDS011;44930;52.878;6.168;2023-05-07T14:00:11;14.23;;;12.73;;
59147;SDS011;44930;52.878;6.168;2023-05-07T14:02:37;17.52;;;13.70;;
59147;SDS011;44930;52.878;6.168;2023-05-07T14:05:03;15.73;;;12.57;;
59147;SDS011;44930;52.878;6.168;2023-05-07T14:07:28;17.70;;;14.65;;
59147;SDS011;44930;52.878;6.168;2023-05-07T14:09:54;18.05;;;14.73;;
59147;SDS011;44930;52.878;6.168;2023-05-07T14:12:21;15.15;;;13.55;;
59147;SDS011;44930;52.878;6.168;2023-05-07T14:14:47;16.98;;;14.70;;
59147;SDS011;44930;52.878;6.168;2023-05-07T14:17:14;15.90;;;14.20;;
59147;SDS011;44930;52.878;6.168;2023-05-07T14:19:41;16.67;;;14.68;;
59147;SDS011;44930;52.878;6.168;2023-05-07T14:22:06;21.30;;;14.82;;
59147;SDS011;44930;52.878;6.168;2023-05-07T14:24:32;17.83;;;15.35;;
59147;SDS011;44930;52.878;6.168;2023-05-07T14:26:57;16.50;;;14.70;;
59147;SDS011;44930;52.878;6.168;2023-05-07T14:29:23;15.27;;;12.95;;
59147;SDS011;44930;52.878;6.168;2023-05-07T14:31:49;15.50;;;13.73;;
59147;SDS011;44930;52.878;6.168;2023-05-07T14:34:14;16.08;;;14.38;;